Time;durP1;ratioP1;P1;durP2;ratioP2;P2;SDS_P1;SDS_P2;PMS_P1;PMS_P2;Temp;Humidity;BMP_temperature;BMP_pressure;BME280_temperature;BME280_humidity;BME280_pressure;Samples;Min_cycle;Max_cycle;Signal;HPM_P1;HPM_P2
2023/10/10 00:01:03;;;;;;;12.90;8.23;;;;;;;;;;5110772;28;20065;-53
2023/10/10 00:03:31;;;;;;;14.85;8.07;;;;;;;;;;5111195;28;20389;-55
2023/10/10 00:06:06;;;;;;;11.75;6.93;;;;;;;;;;5111375;28;20019;-53
2023/10/10 00:08:43;;;;;;;16.45;9.63;;;;;;;;;;5110609;28;20389;-53
2023/10/10 00:11:10;;;;;;;32.17;9.88;;;;;;;;;;5111452;28;20432;-53
2023/10/10 00:13:42;;;;;;;12.65;7.75;;;;;;;;;;5112202;28;20031;-53
2023/10/10 00:16:34;;;;;;;13.00;7.80;;;;;;;;;;5112128;28;20054;-52
2023/10/10 00:19:11;;;;;;;14.35;9.35;;;;;;;;;;5112082;28;20020;-50
2023/10/10 00:21:37;;;;;;;18.33;8.05;;;;;;;;;;5110149;28;20245;-51
2023/10/10 00:24:04;;;;;;;15.23;8.90;;;;;;;;;;5110845;28;20431;-55
2023/10/10 00:26:30;;;;;;;17.50;9.57;;;;;;;;;;5110936;28;20024;-52
2023/10/10 00:28:57;;;;;;;13.82;8.73;;;;;;;;;;5110120;28;20032;-53
2023/10/10 00:31:24;;;;;;;14.13;9.80;;;;;;;;;;5111196;28;20050;-55
2023/10/10 00:33:51;;;;;;;13.95;8.88;;;;;;;;;;5110522;28;20035;-54
2023/10/10 00:36:21;;;;;;;13.35;8.23;;;;;;;;;;5110570;28;20031;-54
2023/10/10 00:38:49;;;;;;;14.73;9.95;;;;;;;;;;5110917;28;20039;-53
2023/10/10 00:41:15;;;;;;;15.90;9.95;;;;;;;;;;5111189;28;20045;-54
2023/10/10 00:43:41;;;;;;;13.55;8.90;;;;;;;;;;5110495;28;20108;-54
2023/10/10 00:46:11;;;;;;;13.50;8.43;;;;;;;;;;5111582;28;20027;-52
2023/10/10 00:48:38;;;;;;;14.20;9.27;;;;;;;;;;5111799;28;20028;-50
2023/10/10 00:51:11;;;;;;;13.52;8.82;;;;;;;;;;5110732;28;20039;-52
2023/10/10 00:53:39;;;;;;;14.18;9.02;;;;;;;;;;5111856;28;20491;-57
2023/10/10 00:56:06;;;;;;;13.70;8.68;;;;;;;;;;5111621;28;20494;-53
2023/10/10 00:58:36;;;;;;;18.48;11.38;;;;;;;;;;5110274;28;20028;-56
2023/10/10 01:01:12;;;;;;;13.13;8.00;;;;;;;;;;5110863;28;20421;-52
2023/10/10 01:03:42;;;;;;;14.15;8.93;;;;;;;;;;5111622;28;20546;-56
2023/10/10 01:06:14;;;;;;;13.50;8.32;;;;;;;;;;5111714;28;20027;-55
2023/10/10 01:08:50;;;;;;;14.55;9.88;;;;;;;;;;5111840;28;20015;-56
2023/10/10 01:11:17;;;;;;;13.70;8.73;;;;;;;;;;5110707;28;20027;-54
2023/10/10 01:13:43;;;;;;;17.17;9.90;;;;;;;;;;5112190;28;20026;-54
2023/10/10 01:16:09;;;;;;;14.40;10.05;;;;;;;;;;5115497;28;20047;-52
2023/10/10 01:18:51;;;;;;;15.85;10.00;;;;;;;;;;5115254;28;20019;-54
2023/10/10 01:21:32;;;;;;;14.93;10.57;;;;;;;;;;5113138;28;20112;-54
2023/10/10 01:24:06;;;;;;;14.07;8.98;;;;;;;;;;5115190;28;20090;-52
2023/10/10 01:26:35;;;;;;;14.10;9.80;;;;;;;;;;5115195;27;20035;-53
2023/10/10 01:29:13;;;;;;;14.68;10.27;;;;;;;;;;5115158;28;20046;-53
2023/10/10 01:31:42;;;;;;;17.30;11.70;;;;;;;;;;5114572;28;20408;-56
2023/10/10 01:34:09;;;;;;;13.63;8.80;;;;;;;;;;5114873;28;20019;-50
2023/10/10 01:36:38;;;;;;;14.38;10.13;;;;;;;;;;5113697;28;20019;-53
2023/10/10 01:39:07;;;;;;;;;;;;;;;;;;5115289;28;20020;-53
2023/10/10 01:41:46;;;;;;;14.52;9.85;;;;;;;;;;5114199;28;19908;-55
2023/10/10 01:44:12;;;;;;;;;;;;;;;;;;5113165;28;20031;-50
2023/10/10 01:46:41;;;;;;;13.73;8.98;;;;;;;;;;5105866;28;19908;-52
2023/10/10 01:49:19;;;;;;;16.05;11.95;;;;;;;;;;5094199;28;20016;-53
2023/10/10 01:51:46;;;;;;;18.42;11.18;;;;;;;;;;5093499;28;20119;-55
2023/10/10 01:54:14;;;;;;;14.48;9.98;;;;;;;;;;5093804;28;20024;-49
2023/10/10 01:56:40;;;;;;;17.83;11.18;;;;;;;;;;5093967;28;20008;-54
2023/10/10 01:59:10;;;;;;;14.38;10.07;;;;;;;;;;5092420;28;20115;-52
2023/10/10 02:01:36;;;;;;;14.50;10.45;;;;;;;;;;5091991;28;20073;-55
2023/10/10 02:04:07;;;;;;;14.00;9.45;;;;;;;;;;5092617;28;20024;-53
2023/10/10 02:06:35;;;;;;;14.00;9.52;;;;;;;;;;5093943;28;20012;-55
2023/10/10 02:09:27;;;;;;;15.43;10.38;;;;;;;;;;5093687;28;20016;-52
2023/10/10 02:12:04;;;;;;;14.65;9.13;;;;;;;;;;5094818;28;20031;-50
2023/10/10 02:14:30;;;;;;;14.63;9.98;;;;;;;;;;5093584;28;20019;-52
2023/10/10 02:16:59;;;;;;;14.75;10.60;;;;;;;;;;5092351;28;20052;-51
2023/10/10 02:19:40;;;;;;;14.77;10.57;;;;;;;;;;5093383;28;20480;-51
2023/10/10 02:22:19;;;;;;;18.70;11.60;;;;;;;;;;5107381;28;20201;-53
2023/10/10 02:24:49;;;;;;;17.50;11.77;;;;;;;;;;5113596;28;20105;-52
2023/10/10 02:27:19;;;;;;;21.10;11.15;;;;;;;;;;5113219;28;20020;-52
2023/10/10 02:29:53;;;;;;;14.80;9.43;;;;;;;;;;5113262;28;20027;-51
2023/10/10 02:32:19;;;;;;;15.63;10.45;;;;;;;;;;5113083;28;20098;-51
2023/10/10 02:35:00;;;;;;;16.40;11.88;;;;;;;;;;5113736;28;20055;-51
2023/10/10 02:42:37;;;;;;;15.82;12.23;;;;;;;;;;5113854;28;20520;-51
2023/10/10 02:45:04;;;;;;;13.95;9.48;;;;;;;;;;5113307;28;20027;-50
2023/10/10 02:47:30;;;;;;;14.98;9.68;;;;;;;;;;5112063;28;20019;-54
2023/10/10 02:50:10;;;;;;;15.65;11.05;;;;;;;;;;5112777;28;20035;-52
2023/10/10 02:52:45;;;;;;;14.73;9.90;;;;;;;;;;5113197;28;20125;-51
2023/10/10 02:55:16;;;;;;;14.25;8.60;;;;;;;;;;5111777;28;20015;-52
2023/10/10 02:57:42;;;;;;;14.65;9.82;;;;;;;;;;5113305;28;20480;-52
2023/10/10 03:00:28;;;;;;;14.10;9.65;;;;;;;;;;5112850;28;20030;-52
2023/10/10 03:02:58;;;;;;;16.50;10.15;;;;;;;;;;5113057;28;20030;-52
2023/10/10 03:05:44;;;;;;;15.98;10.73;;;;;;;;;;5111771;28;20024;-51
2023/10/10 03:08:15;;;;;;;19.80;14.23;;;;;;;;;;5113165;28;20537;-56
2023/10/10 03:10:45;;;;;;;15.02;10.55;;;;;;;;;;5112175;28;20350;-57
2023/10/10 03:15:56;;;;;;;14.77;11.13;;;;;;;;;;5113163;28;20058;-52
2023/10/10 03:18:29;;;;;;;14.63;10.75;;;;;;;;;;5112719;28;20012;-53
2023/10/10 03:21:13;;;;;;;14.00;9.45;;;;;;;;;;5112134;28;20016;-50
2023/10/10 03:23:53;;;;;;;14.80;10.43;;;;;;;;;;5111540;28;20027;-51
2023/10/10 03:26:32;;;;;;;14.30;10.35;;;;;;;;;;5113078;27;20442;-54
2023/10/10 03:29:04;;;;;;;14.75;10.48;;;;;;;;;;5092453;28;20559;-55
2023/10/10 03:31:38;;;;;;;14.00;9.75;;;;;;;;;;5091367;28;20401;-52
2023/10/10 03:37:04;;;;;;;14.57;10.52;;;;;;;;;;5092212;28;20020;-55
2023/10/10 03:39:44;;;;;;;14.40;10.77;;;;;;;;;;5091358;28;20012;-56
2023/10/10 05:23:48;;;;;;;20.80;15.52;;;;;;;;;;5094255;28;20035;-51
2023/10/10 05:26:15;;;;;;;17.20;14.30;;;;;;;;;;5093124;28;20012;-52
2023/10/10 05:28:45;;;;;;;19.30;15.25;;;;;;;;;;5092970;28;20016;-56
2023/10/10 05:31:12;;;;;;;15.80;13.45;;;;;;;;;;5093681;28;20008;-56
2023/10/10 05:33:38;;;;;;;15.52;13.20;;;;;;;;;;5094122;28;20081;-51
2023/10/10 05:36:06;;;;;;;16.85;14.48;;;;;;;;;;5093940;28;20019;-55
2023/10/10 05:38:32;;;;;;;;;;;;;;;;;;5094091;28;20019;-55
2023/10/10 05:41:01;;;;;;;17.05;13.80;;;;;;;;;;5093384;28;19963;-52
2023/10/10 05:43:33;;;;;;;18.67;15.27;;;;;;;;;;5093766;28;20012;-56
2023/10/10 05:46:00;;;;;;;20.48;13.30;;;;;;;;;;5092414;28;20363;-54
2023/10/10 05:48:31;;;;;;;16.13;13.48;;;;;;;;;;5099680;28;20016;-53
2023/10/10 05:50:57;;;;;;;15.90;12.52;;;;;;;;;;5100186;22;20033;-51
2023/10/10 05:53:24;;;;;;;16.85;13.80;;;;;;;;;;5071715;28;20028;-49
2023/10/10 05:55:53;;;;;;;16.80;14.30;;;;;;;;;;5070059;28;20422;-55
2023/10/10 05:58:19;;;;;;;17.67;12.60;;;;;;;;;;5062605;28;20187;-54
2023/10/10 06:00:48;;;;;;;15.95;12.65;;;;;;;;;;5066526;28;20024;-53
2023/10/10 06:03:16;;;;;;;16.90;13.10;;;;;;;;;;5053447;28;20017;-50
2023/10/10 06:05:45;;;;;;;25.23;16.58;;;;;;;;;;5055579;28;20086;-53
2023/10/10 06:08:12;;;;;;;15.85;11.73;;;;;;;;;;5051882;28;20025;-54
2023/10/10 06:10:38;;;;;;;17.15;13.55;;;;;;;;;;5052375;28;20049;-50
2023/10/10 06:13:06;;;;;;;26.85;13.63;;;;;;;;;;5052909;28;20059;-49
2023/10/10 06:15:35;;;;;;;15.13;10.70;;;;;;;;;;5051515;28;20108;-55
2023/10/10 06:18:14;;;;;;;18.77;13.05;;;;;;;;;;5053054;28;20391;-54
2023/10/10 06:20:43;;;;;;;15.38;11.43;;;;;;;;;;5052309;28;20112;-52
2023/10/10 06:23:11;;;;;;;15.23;10.75;;;;;;;;;;5056572;28;20104;-53
2023/10/10 06:25:37;;;;;;;18.48;13.55;;;;;;;;;;5053163;28;20754;-52
2023/10/10 06:28:05;;;;;;;19.00;13.35;;;;;;;;;;5052807;28;20142;-51
2023/10/10 06:30:36;;;;;;;14.07;9.75;;;;;;;;;;5061376;28;20103;-54
2023/10/10 06:33:09;;;;;;;16.92;12.93;;;;;;;;;;5058673;28;20026;-52
2023/10/10 06:35:38;;;;;;;26.73;14.13;;;;;;;;;;5052884;28;20424;-52
2023/10/10 06:38:12;;;;;;;14.32;9.77;;;;;;;;;;5053118;28;20017;-52
2023/10/10 06:40:52;;;;;;;18.90;11.10;;;;;;;;;;5050730;28;20029;-49
2023/10/10 06:43:19;;;;;;;17.95;11.98;;;;;;;;;;5052697;28;20035;-54
2023/10/10 06:45:52;;;;;;;18.60;11.98;;;;;;;;;;5052487;28;20025;-53
2023/10/10 06:48:21;;;;;;;19.30;10.73;;;;;;;;;;5058913;28;20016;-53
2023/10/10 06:50:49;;;;;;;15.95;10.77;;;;;;;;;;5084007;28;20036;-50
2023/10/10 06:53:34;;;;;;;15.63;9.93;;;;;;;;;;5093412;28;20031;-54
2023/10/10 06:56:17;;;;;;;17.15;11.05;;;;;;;;;;5086408;28;20020;-54
2023/10/10 06:58:44;;;;;;;15.32;10.70;;;;;;;;;;5085789;28;20025;-52
2023/10/10 07:01:11;;;;;;;17.10;11.73;;;;;;;;;;5093151;28;20024;-55
2023/10/10 07:03:39;;;;;;;16.10;10.27;;;;;;;;;;5092523;28;20740;-52
2023/10/10 07:06:08;;;;;;;15.57;10.07;;;;;;;;;;5092696;28;20064;-51
2023/10/10 07:08:34;;;;;;;19.63;13.30;;;;;;;;;;5092781;28;20111;-49
2023/10/10 07:11:01;;;;;;;21.17;15.02;;;;;;;;;;5092238;28;20028;-51
2023/10/10 07:13:30;;;;;;;54.42;19.48;;;;;;;;;;5092383;28;20020;-48
2023/10/10 07:15:57;;;;;;;18.10;10.43;;;;;;;;;;5092652;28;20091;-50
2023/10/10 07:18:23;;;;;;;14.63;10.52;;;;;;;;;;5092041;28;20031;-53
2023/10/10 07:21:17;;;;;;;16.00;12.38;;;;;;;;;;5090333;28;20012;-49
2023/10/10 07:26:40;;;;;;;14.88;11.00;;;;;;;;;;5071719;28;20024;-53
2023/10/10 07:31:53;;;;;;;17.15;12.60;;;;;;;;;;5071566;28;20058;-57
2023/10/10 07:34:19;;;;;;;15.23;10.25;;;;;;;;;;5071826;28;20532;-54
2023/10/10 07:36:50;;;;;;;19.38;10.98;;;;;;;;;;5071681;28;20028;-50
2023/10/10 07:39:32;;;;;;;16.02;12.43;;;;;;;;;;5071348;28;20103;-55
2023/10/10 07:41:58;;;;;;;16.33;11.52;;;;;;;;;;5070244;28;20033;-53
2023/10/10 07:44:25;;;;;;;17.98;12.05;;;;;;;;;;5071024;28;20111;-56
2023/10/10 07:49:35;;;;;;;14.20;9.65;;;;;;;;;;5084529;28;20052;-51
2023/10/10 07:52:04;;;;;;;16.02;12.40;;;;;;;;;;5091227;28;20061;-55
2023/10/10 07:54:39;;;;;;;24.92;11.48;;;;;;;;;;5091252;28;20016;-56
2023/10/10 07:57:11;;;;;;;17.60;11.30;;;;;;;;;;5091503;28;20099;-58
2023/10/10 07:59:37;;;;;;;24.48;12.23;;;;;;;;;;5089699;28;20016;-58
2023/10/10 08:02:19;;;;;;;17.33;12.73;;;;;;;;;;5086358;28;20020;-55
2023/10/10 08:04:49;;;;;;;18.75;12.65;;;;;;;;;;5085953;28;20100;-58
2023/10/10 08:07:18;;;;;;;15.35;11.15;;;;;;;;;;5084616;28;20107;-56
2023/10/10 08:09:45;;;;;;;;;;;;;;;;;;5082179;28;20067;-56
2023/10/10 08:12:12;;;;;;;19.83;12.37;;;;;;;;;;5084135;28;20586;-55
2023/10/10 08:14:39;;;;;;;21.38;12.90;;;;;;;;;;5081987;28;20278;-58
2023/10/10 08:17:18;;;;;;;20.77;13.70;;;;;;;;;;5083145;28;20020;-54
2023/10/10 08:19:50;;;;;;;20.42;13.15;;;;;;;;;;5082514;28;20559;-57
2023/10/10 08:22:17;;;;;;;16.02;10.95;;;;;;;;;;5085942;28;20211;-55
2023/10/10 08:24:43;;;;;;;18.90;12.20;;;;;;;;;;5084751;28;20047;-57
2023/10/10 08:27:11;;;;;;;20.35;14.05;;;;;;;;;;5082731;28;20016;-56
2023/10/10 08:29:38;;;;;;;21.67;15.90;;;;;;;;;;5085732;28;20033;-54
2023/10/10 08:32:08;;;;;;;17.10;12.80;;;;;;;;;;5077892;28;20371;-54
2023/10/10 08:34:38;;;;;;;16.83;10.35;;;;;;;;;;5071374;28;20043;-57
2023/10/10 08:37:04;;;;;;;18.80;10.50;;;;;;;;;;5071047;28;20019;-56
2023/10/10 08:39:39;;;;;;;20.02;14.23;;;;;;;;;;5070539;28;20032;-59
2023/10/10 08:42:05;;;;;;;17.23;12.48;;;;;;;;;;5070969;28;20095;-60
2023/10/10 08:44:37;;;;;;;16.38;12.27;;;;;;;;;;5071375;28;20021;-57
2023/10/10 08:47:04;;;;;;;17.05;11.50;;;;;;;;;;5071391;28;20074;-60
2023/10/10 08:49:30;;;;;;;18.17;12.70;;;;;;;;;;5084352;28;20028;-53
2023/10/10 08:52:01;;;;;;;21.73;12.73;;;;;;;;;;5091014;28;20043;-58
2023/10/10 08:54:27;;;;;;;24.10;11.90;;;;;;;;;;5085139;28;20051;-58
2023/10/10 08:56:59;;;;;;;31.85;12.13;;;;;;;;;;5083581;28;20024;-56
2023/10/10 08:59:25;;;;;;;18.83;14.32;;;;;;;;;;5082323;28;20017;-53
2023/10/10 09:01:51;;;;;;;22.23;14.20;;;;;;;;;;5086163;28;20459;-57
2023/10/10 09:04:19;;;;;;;16.13;12.18;;;;;;;;;;5083815;28;20089;-54
2023/10/10 09:06:50;;;;;;;17.80;14.25;;;;;;;;;;5079094;28;20035;-56
2023/10/10 09:09:37;;;;;;;17.67;12.60;;;;;;;;;;5070526;28;20089;-57
2023/10/10 09:12:04;;;;;;;16.65;12.52;;;;;;;;;;5069865;28;20017;-58
2023/10/10 09:14:40;;;;;;;18.27;11.32;;;;;;;;;;5069813;28;20096;-59
2023/10/10 09:17:09;;;;;;;17.17;13.55;;;;;;;;;;5070468;28;20454;-56
2023/10/10 09:19:46;;;;;;;18.10;13.38;;;;;;;;;;5070073;28;20042;-60
2023/10/10 09:22:25;;;;;;;14.98;10.93;;;;;;;;;;5069776;28;20024;-57
2023/10/10 09:24:55;;;;;;;15.57;12.45;;;;;;;;;;5077969;28;20020;-54
2023/10/10 09:27:22;;;;;;;18.15;12.50;;;;;;;;;;5075935;28;20027;-56
2023/10/10 09:29:54;;;;;;;15.32;11.60;;;;;;;;;;5083911;28;20048;-55
2023/10/10 09:32:27;;;;;;;21.27;13.48;;;;;;;;;;5084239;28;20144;-55
2023/10/10 09:34:54;;;;;;;15.95;11.90;;;;;;;;;;5080352;28;20425;-54
2023/10/10 09:37:29;;;;;;;17.73;13.77;;;;;;;;;;5085284;28;20016;-53
2023/10/10 09:39:56;;;;;;;19.77;13.70;;;;;;;;;;5087409;28;20040;-46
2023/10/10 09:42:27;;;;;;;16.63;11.35;;;;;;;;;;5085868;28;20028;-48
2023/10/10 09:52:55;;;;;;;16.17;12.50;;;;;;;;;;5093595;28;20435;-47
2023/10/10 10:00:46;;;;;;;15.25;11.05;;;;;;;;;;5076103;28;20020;-46
2023/10/10 10:05:58;;;;;;;17.25;11.80;;;;;;;;;;5074855;28;20035;-47
2023/10/10 10:08:37;;;;;;;15.52;10.90;;;;;;;;;;5073657;28;20024;-53
2023/10/10 10:11:11;;;;;;;14.40;10.48;;;;;;;;;;5072833;28;20036;-47
2023/10/10 10:13:51;;;;;;;14.30;10.68;;;;;;;;;;5072976;28;20055;-53
2023/10/10 10:16:25;;;;;;;15.68;10.95;;;;;;;;;;5074078;28;20433;-46
2023/10/10 10:19:11;;;;;;;14.23;9.90;;;;;;;;;;5072245;28;20647;-46
2023/10/10 10:21:52;;;;;;;14.93;11.40;;;;;;;;;;5073397;28;20063;-48
2023/10/10 10:24:26;;;;;;;15.38;10.95;;;;;;;;;;5082094;28;20039;-50
2023/10/10 10:27:12;;;;;;;14.18;10.00;;;;;;;;;;5082584;28;20025;-48
2023/10/10 10:29:42;;;;;;;26.42;12.07;;;;;;;;;;5086083;28;21068;-50
2023/10/10 10:32:10;;;;;;;14.30;10.30;;;;;;;;;;5080611;28;20028;-53
2023/10/10 10:34:45;;;;;;;15.27;11.20;;;;;;;;;;5072518;28;20402;-49
2023/10/10 10:37:20;;;;;;;14.20;9.93;;;;;;;;;;5078494;28;20022;-51
2023/10/10 10:42:38;;;;;;;14.48;10.57;;;;;;;;;;5072386;28;20394;-49
2023/10/10 10:45:26;;;;;;;14.48;10.55;;;;;;;;;;5071107;28;20035;-45
2023/10/10 10:48:01;;;;;;;16.60;11.05;;;;;;;;;;5071965;28;20020;-53
2023/10/10 10:50:40;;;;;;;14.10;10.15;;;;;;;;;;5071815;28;20044;-51
2023/10/10 10:53:08;;;;;;;15.25;11.77;;;;;;;;;;5078166;28;20486;-46
2023/10/10 10:55:39;;;;;;;;;;;;;;;;;;5082836;28;20128;-52
2023/10/10 10:58:07;;;;;;;14.05;9.85;;;;;;;;;;5087614;28;19904;-52
2023/10/10 11:00:56;;;;;;;16.50;9.80;;;;;;;;;;5084825;28;20020;-48
2023/10/10 11:03:23;;;;;;;15.95;11.52;;;;;;;;;;5085924;28;20098;-47
2023/10/10 11:05:53;;;;;;;14.25;10.10;;;;;;;;;;5083949;28;20024;-49
2023/10/10 11:08:45;;;;;;;14.27;10.35;;;;;;;;;;5086057;28;20013;-50
2023/10/10 11:11:23;;;;;;;14.60;10.85;;;;;;;;;;5082035;28;20024;-48
2023/10/10 11:13:51;;;;;;;14.23;10.23;;;;;;;;;;5083155;28;20561;-49
2023/10/10 11:16:18;;;;;;;14.50;10.95;;;;;;;;;;5082787;28;20081;-49
2023/10/10 11:18:44;;;;;;;14.73;11.18;;;;;;;;;;5086694;28;20103;-46
2023/10/10 11:21:11;;;;;;;14.63;11.10;;;;;;;;;;5077417;28;20139;-51
2023/10/10 11:23:41;;;;;;;14.80;11.80;;;;;;;;;;5074082;28;20032;-49
2023/10/10 11:26:13;;;;;;;15.35;11.90;;;;;;;;;;5084032;28;20039;-50
2023/10/10 11:28:50;;;;;;;14.98;11.68;;;;;;;;;;5083486;28;20469;-49
2023/10/10 11:31:23;;;;;;;15.00;11.40;;;;;;;;;;5086132;28;20561;-48
2023/10/10 11:33:55;;;;;;;14.70;11.40;;;;;;;;;;5072396;28;20024;-50
2023/10/10 11:36:22;;;;;;;17.42;12.43;;;;;;;;;;5074158;28;20088;-48
2023/10/10 11:38:55;;;;;;;14.57;11.23;;;;;;;;;;5085982;28;20077;-51
2023/10/10 11:41:30;;;;;;;15.10;12.07;;;;;;;;;;5077682;28;20481;-49
2023/10/10 11:44:02;;;;;;;15.00;11.73;;;;;;;;;;5084086;28;20020;-50
2023/10/10 11:46:29;;;;;;;16.00;12.63;;;;;;;;;;5077199;28;20031;-50
2023/10/10 11:48:55;;;;;;;14.77;11.77;;;;;;;;;;5079815;28;20020;-46
2023/10/10 11:51:37;;;;;;;15.52;11.88;;;;;;;;;;5097402;22;20441;-52
2023/10/10 11:54:03;;;;;;;14.85;11.43;;;;;;;;;;5084917;28;20024;-50
2023/10/10 11:56:34;;;;;;;16.70;11.88;;;;;;;;;;5091712;28;20141;-55
2023/10/10 11:59:00;;;;;;;15.88;12.45;;;;;;;;;;5086740;28;20104;-53
2023/10/10 12:04:21;;;;;;;16.75;12.32;;;;;;;;;;5085606;28;20028;-52
2023/10/10 12:06:47;;;;;;;14.93;11.57;;;;;;;;;;5089678;28;20020;-51
2023/10/10 12:09:18;;;;;;;17.65;12.55;;;;;;;;;;5071441;28;20027;-49
2023/10/10 12:11:44;;;;;;;15.30;12.10;;;;;;;;;;5088740;28;20032;-54
2023/10/10 12:14:12;;;;;;;14.73;11.95;;;;;;;;;;5089563;28;20031;-56
2023/10/10 12:16:38;;;;;;;16.20;11.80;;;;;;;;;;5089147;28;20470;-50
2023/10/10 12:19:05;;;;;;;15.32;12.43;;;;;;;;;;5089496;28;20149;-53
2023/10/10 12:21:32;;;;;;;15.23;12.10;;;;;;;;;;5072015;28;20722;-51
2023/10/10 12:23:59;;;;;;;14.98;12.50;;;;;;;;;;5091507;28;20020;-50
2023/10/10 12:26:25;;;;;;;15.05;12.00;;;;;;;;;;5073409;28;20027;-51
2023/10/10 12:28:54;;;;;;;15.50;12.65;;;;;;;;;;5091175;28;20428;-53
2023/10/10 12:31:21;;;;;;;14.85;12.15;;;;;;;;;;5072107;28;20062;-48
2023/10/10 12:33:53;;;;;;;14.80;11.80;;;;;;;;;;5091460;28;20044;-51
2023/10/10 12:36:22;;;;;;;15.75;12.73;;;;;;;;;;5091410;28;20420;-52
2023/10/10 12:38:48;;;;;;;15.25;12.52;;;;;;;;;;5092785;28;20012;-54
2023/10/10 12:41:20;;;;;;;17.23;12.45;;;;;;;;;;5074298;28;20059;-53
2023/10/10 12:43:46;;;;;;;15.20;12.20;;;;;;;;;;5093363;28;20507;-51
2023/10/10 12:46:16;;;;;;;15.30;12.88;;;;;;;;;;5093252;28;20032;-52
2023/10/10 12:48:43;;;;;;;18.02;13.60;;;;;;;;;;5066476;28;20025;-48
2023/10/10 12:51:09;;;;;;;14.93;12.27;;;;;;;;;;5070028;28;20077;-50
2023/10/10 12:53:39;;;;;;;15.20;12.70;;;;;;;;;;5071229;28;20139;-51
2023/10/10 12:56:06;;;;;;;17.63;13.48;;;;;;;;;;5070923;28;20468;-49
2023/10/10 12:58:32;;;;;;;15.60;12.90;;;;;;;;;;5071302;28;20097;-51
2023/10/10 13:00:59;;;;;;;15.23;12.40;;;;;;;;;;5070567;28;20407;-51
2023/10/10 13:03:29;;;;;;;16.02;13.40;;;;;;;;;;5070653;28;20029;-51
2023/10/10 13:05:59;;;;;;;15.10;12.63;;;;;;;;;;5071267;28;20307;-52
2023/10/10 13:08:38;;;;;;;15.65;12.52;;;;;;;;;;5071049;28;20464;-50
2023/10/10 13:11:12;;;;;;;15.73;12.43;;;;;;;;;;5053704;28;20116;-53
2023/10/10 13:13:45;;;;;;;15.73;12.73;;;;;;;;;;5086249;28;20106;-50
2023/10/10 13:18:56;;;;;;;14.88;11.95;;;;;;;;;;5088952;28;20039;-50
2023/10/10 13:21:23;;;;;;;15.20;12.23;;;;;;;;;;5084147;28;21039;-53
2023/10/10 13:23:49;;;;;;;15.45;12.68;;;;;;;;;;5087817;28;20089;-51
2023/10/10 13:26:16;;;;;;;14.95;12.20;;;;;;;;;;5068320;28;20489;-55
2023/10/10 13:28:46;;;;;;;15.05;12.55;;;;;;;;;;4740324;28;10000104;-51
2023/10/10 13:31:15;;;;;;;15.18;12.70;;;;;;;;;;5086557;28;20020;-52
2023/10/10 13:33:42;;;;;;;15.70;12.43;;;;;;;;;;5088176;28;20655;-51
2023/10/10 13:36:11;;;;;;;14.77;11.77;;;;;;;;;;5091300;28;20028;-49
2023/10/10 13:38:38;;;;;;;17.40;12.60;;;;;;;;;;5091027;28;20119;-54
2023/10/10 13:41:08;;;;;;;15.00;12.40;;;;;;;;;;5084257;28;20028;-53
2023/10/10 13:43:34;;;;;;;14.88;12.25;;;;;;;;;;5091191;28;20030;-51
2023/10/10 13:46:02;;;;;;;15.00;11.93;;;;;;;;;;5072947;28;20028;-51
2023/10/10 13:48:30;;;;;;;15.10;12.35;;;;;;;;;;5082520;28;20025;-52
2023/10/10 13:50:59;;;;;;;16.07;12.87;;;;;;;;;;5081716;28;20785;-52
2023/10/10 13:53:26;;;;;;;15.50;13.20;;;;;;;;;;5090304;28;20292;-52
2023/10/10 13:55:52;;;;;;;14.98;12.20;;;;;;;;;;5087525;28;20017;-53
2023/10/10 13:58:18;;;;;;;15.20;12.75;;;;;;;;;;5085165;28;20027;-53
2023/10/10 14:00:52;;;;;;;17.35;14.55;;;;;;;;;;5072027;28;20043;-53
2023/10/10 14:03:35;;;;;;;15.10;12.70;;;;;;;;;;5071907;28;20028;-47
2023/10/10 14:06:08;;;;;;;17.00;13.82;;;;;;;;;;5083094;28;20397;-53
2023/10/10 14:08:34;;;;;;;15.10;12.75;;;;;;;;;;5082271;28;20029;-51
2023/10/10 14:11:00;;;;;;;15.68;13.60;;;;;;;;;;5090471;28;20032;-53
2023/10/10 14:13:30;;;;;;;15.93;12.25;;;;;;;;;;5090812;28;20061;-49
2023/10/10 14:15:57;;;;;;;15.82;13.27;;;;;;;;;;5090553;28;20020;-51
2023/10/10 14:18:27;;;;;;;20.42;12.40;;;;;;;;;;5087445;28;20120;-54
2023/10/10 14:20:53;;;;;;;15.70;13.68;;;;;;;;;;5090168;28;20035;-53
2023/10/10 14:23:20;;;;;;;17.40;13.93;;;;;;;;;;5089987;28;20132;-51
2023/10/10 14:25:48;;;;;;;15.10;12.50;;;;;;;;;;5073253;28;20020;-51
2023/10/10 14:28:16;;;;;;;;;;;;;;;;;;5092856;28;20350;-50
2023/10/10 14:30:51;;;;;;;15.10;12.52;;;;;;;;;;5092208;28;19995;-52
2023/10/10 14:33:18;;;;;;;17.27;14.15;;;;;;;;;;5092934;28;20104;-48
2023/10/10 14:35:44;;;;;;;15.00;12.57;;;;;;;;;;5092891;28;20024;-51
2023/10/10 14:38:17;;;;;;;16.05;13.40;;;;;;;;;;5093393;28;20035;-53
2023/10/10 14:40:43;;;;;;;15.20;12.80;;;;;;;;;;5073679;28;20020;-51
2023/10/10 14:43:11;;;;;;;14.90;12.02;;;;;;;;;;5093230;28;20470;-49
2023/10/10 14:45:43;;;;;;;16.98;13.35;;;;;;;;;;5074669;28;20020;-51
2023/10/10 14:48:18;;;;;;;15.40;12.75;;;;;;;;;;5074682;28;20394;-51
2023/10/10 14:50:53;;;;;;;15.52;13.10;;;;;;;;;;5091814;28;20648;-52
2023/10/10 14:53:22;;;;;;;14.80;11.90;;;;;;;;;;5093158;28;20022;-51
2023/10/10 14:55:51;;;;;;;17.85;13.77;;;;;;;;;;5092931;28;20449;-48
2023/10/10 14:58:21;;;;;;;16.48;12.57;;;;;;;;;;5092311;28;20446;-55
2023/10/10 15:00:49;;;;;;;14.80;12.00;;;;;;;;;;5091788;28;20370;-49
2023/10/10 15:03:15;;;;;;;15.32;12.77;;;;;;;;;;5074174;28;20042;-50
2023/10/10 15:05:51;;;;;;;14.98;12.27;;;;;;;;;;5071081;28;20020;-54
2023/10/10 15:08:18;;;;;;;19.35;12.30;;;;;;;;;;5087157;28;20034;-57
2023/10/10 15:10:45;;;;;;;17.88;13.27;;;;;;;;;;4734793;28;10000121;-54
2023/10/10 15:13:11;;;;;;;15.10;12.20;;;;;;;;;;5089260;28;20084;-49
2023/10/10 15:15:45;;;;;;;14.95;11.95;;;;;;;;;;5065527;28;20020;-53
2023/10/10 15:18:11;;;;;;;14.95;11.90;;;;;;;;;;5089356;28;20039;-53
2023/10/10 15:20:38;;;;;;;14.90;11.70;;;;;;;;;;5088088;28;20020;-52
2023/10/10 15:23:04;;;;;;;14.85;11.95;;;;;;;;;;5071847;28;20031;-56
2023/10/10 15:25:30;;;;;;;15.25;12.05;;;;;;;;;;5071088;28;20450;-54
2023/10/10 15:27:57;;;;;;;21.02;12.27;;;;;;;;;;5089484;28;20028;-51
2023/10/10 15:30:23;;;;;;;15.18;11.85;;;;;;;;;;5085835;28;20469;-54
2023/10/10 15:32:56;;;;;;;14.90;11.80;;;;;;;;;;5088111;28;20685;-52
2023/10/10 15:35:23;;;;;;;14.50;11.18;;;;;;;;;;5071244;28;20020;-54
2023/10/10 15:37:52;;;;;;;16.02;11.48;;;;;;;;;;5071258;28;20020;-51
2023/10/10 15:40:21;;;;;;;14.57;11.32;;;;;;;;;;5088733;28;20104;-54
2023/10/10 15:42:53;;;;;;;15.35;11.90;;;;;;;;;;5089803;28;20028;-55
2023/10/10 15:45:21;;;;;;;14.65;11.50;;;;;;;;;;5070984;28;20054;-54
2023/10/10 15:47:54;;;;;;;15.65;12.35;;;;;;;;;;5085692;28;20449;-52
2023/10/10 15:50:23;;;;;;;15.60;12.20;;;;;;;;;;5080154;28;20032;-52
2023/10/10 15:52:49;;;;;;;16.30;11.82;;;;;;;;;;5086412;28;20660;-51
2023/10/10 15:55:18;;;;;;;17.90;11.98;;;;;;;;;;5069429;28;20043;-52
2023/10/10 15:57:45;;;;;;;14.70;11.43;;;;;;;;;;5063978;28;20070;-56
2023/10/10 16:00:15;;;;;;;16.88;12.15;;;;;;;;;;5087618;28;20031;-56
2023/10/10 16:02:41;;;;;;;15.00;11.73;;;;;;;;;;5088448;28;20016;-55
2023/10/10 16:05:07;;;;;;;14.80;12.05;;;;;;;;;;5088281;28;20035;-56
2023/10/10 16:07:33;;;;;;;14.60;11.40;;;;;;;;;;5087934;28;20069;-54
2023/10/10 16:09:59;;;;;;;14.70;11.50;;;;;;;;;;5087050;28;20036;-52
2023/10/10 16:12:25;;;;;;;14.57;11.48;;;;;;;;;;5088032;28;20054;-56
2023/10/10 16:14:51;;;;;;;14.60;11.40;;;;;;;;;;5087718;28;20036;-56
2023/10/10 16:17:17;;;;;;;14.68;11.63;;;;;;;;;;5088022;28;20477;-51
2023/10/10 16:19:43;;;;;;;18.60;12.95;;;;;;;;;;5069614;28;20115;-53
2023/10/10 16:22:13;;;;;;;16.88;12.02;;;;;;;;;;5069410;28;20024;-51
2023/10/10 16:24:39;;;;;;;14.60;11.30;;;;;;;;;;5087966;28;20400;-53
2023/10/10 16:27:08;;;;;;;14.85;11.55;;;;;;;;;;5087939;28;20469;-55
2023/10/10 16:29:34;;;;;;;15.35;11.98;;;;;;;;;;5087376;28;20055;-53
2023/10/10 16:32:08;;;;;;;14.38;10.77;;;;;;;;;;5069030;28;20055;-51
2023/10/10 16:34:34;;;;;;;14.65;11.43;;;;;;;;;;5086452;28;20016;-51
2023/10/10 16:37:00;;;;;;;16.08;11.98;;;;;;;;;;5087855;28;20020;-54
2023/10/10 16:39:26;;;;;;;14.52;11.13;;;;;;;;;;5080989;28;20024;-53
2023/10/10 16:41:57;;;;;;;14.40;10.95;;;;;;;;;;5087520;28;20020;-52
2023/10/10 16:44:23;;;;;;;14.57;11.32;;;;;;;;;;5088033;28;20551;-52
2023/10/10 16:46:49;;;;;;;14.50;11.10;;;;;;;;;;5092289;28;20028;-52
2023/10/10 16:49:19;;;;;;;14.63;11.15;;;;;;;;;;5085988;28;20031;-53
2023/10/10 16:51:46;;;;;;;14.52;11.20;;;;;;;;;;5091099;28;20123;-50
2023/10/10 16:54:12;;;;;;;14.60;11.45;;;;;;;;;;5091748;28;20024;-52
2023/10/10 16:56:40;;;;;;;17.45;12.73;;;;;;;;;;5090182;28;20028;-53
2023/10/10 16:59:06;;;;;;;14.77;11.48;;;;;;;;;;5092636;28;20023;-52
2023/10/10 17:01:32;;;;;;;15.07;12.20;;;;;;;;;;5074248;28;20073;-48
2023/10/10 17:04:00;;;;;;;14.60;11.25;;;;;;;;;;5092257;28;20024;-53